Totnes, United Kingdom
Current Conditions -  °F | °C
As of 8:50 PM on Tuesday 27 Jan 2015 (Local Time) from EGTE Reporting Station
Scattered Clouds Scattered Clouds  
Wind Chill: 39°   Ceiling: Unl
Heat Index: 43°   Visibility: 6mi
Dew Point: 41°   Wind: 6mph
Humidity: 93%   Direction: 230°SW
Pressure: 30.24"   Gusts: NA
Location:  50.43°N, 3.68°W
Report Text: EGTE 272050Z 23005KT 9999 SCT018 06/05 Q1024
Loading
Personal Weather Stations






























Interactive Weather Map New forecast layout! Learn more

10-Day Weather Forecast

Advertisements
Track Severe Weather on mobile